createdAt,value
2022-08-26T00:01:56.610Z,69.60
2022-08-26T00:04:25.170Z,69.70
2022-08-26T00:06:54.017Z,69.80
2022-08-26T00:09:21.335Z,70.00
2022-08-26T00:11:48.202Z,70.10
2022-08-26T00:14:16.358Z,70.30
2022-08-26T00:16:47.617Z,70.20
2022-08-26T00:19:16.899Z,70.10
2022-08-26T00:21:43.849Z,70.10
2022-08-26T00:24:10.600Z,70.20
2022-08-26T00:26:37.461Z,70.30
2022-08-26T00:29:04.413Z,70.40
2022-08-26T00:31:32.095Z,70.50
2022-08-26T00:33:58.950Z,70.60
2022-08-26T00:36:29.529Z,70.80
2022-08-26T00:38:57.996Z,71.10
2022-08-26T00:41:24.992Z,71.30
2022-08-26T00:43:52.890Z,71.40
2022-08-26T00:46:25.253Z,71.60
2022-08-26T00:48:57.649Z,71.80
2022-08-26T00:51:29.525Z,71.90
2022-08-26T00:54:07.640Z,72.00
2022-08-26T00:56:43.251Z,72.20
2022-08-26T01:01:57.401Z,72.40
2022-08-26T01:04:26.144Z,72.40
2022-08-26T01:06:54.177Z,72.50
2022-08-26T01:09:22.578Z,72.60
2022-08-26T01:11:52.216Z,72.70
2022-08-26T01:14:20.695Z,72.90
2022-08-26T01:16:48.312Z,72.80
2022-08-26T01:19:41.223Z,72.90
2022-08-26T01:22:20.049Z,73.10
2022-08-26T01:24:48.207Z,73.00
2022-08-26T01:27:19.623Z,72.90
2022-08-26T01:29:48.705Z,73.10
2022-08-26T01:32:20.127Z,73.10
2022-08-26T01:34:48.291Z,73.20
2022-08-26T01:37:22.029Z,73.40
2022-08-26T01:39:51.469Z,73.50
2022-08-26T01:42:20.864Z,73.60
2022-08-26T01:45:05.065Z,73.50
2022-08-26T01:47:35.240Z,73.40
2022-08-26T01:50:07.258Z,73.40
2022-08-26T01:52:37.841Z,73.10
2022-08-26T01:55:05.915Z,73.30
2022-08-26T01:57:35.985Z,73.30
2022-08-26T02:00:06.819Z,73.40
2022-08-26T02:02:33.626Z,73.50
2022-08-26T02:05:05.643Z,73.60
2022-08-26T02:07:33.837Z,73.60
2022-08-26T02:10:00.861Z,73.70
2022-08-26T02:12:27.712Z,73.80
2022-08-26T02:14:57.925Z,73.90
2022-08-26T02:17:33.054Z,73.90
2022-08-26T02:20:02.141Z,74.00
2022-08-26T02:22:30.638Z,74.00
2022-08-26T02:25:29.216Z,74.00
2022-08-26T02:27:56.764Z,74.00
2022-08-26T02:30:28.081Z,73.90
2022-08-26T02:32:55.385Z,74.10
2022-08-26T02:35:24.136Z,74.30
2022-08-26T02:37:52.265Z,74.50
2022-08-26T02:40:23.549Z,74.70
2022-08-26T02:42:52.754Z,75.00
2022-08-26T02:45:23.303Z,75.10
2022-08-26T02:47:51.798Z,75.40
2022-08-26T02:50:20.242Z,75.50
2022-08-26T02:52:48.298Z,75.50
2022-08-26T02:55:15.302Z,75.70
2022-08-26T02:57:41.996Z,75.80
2022-08-26T03:00:11.793Z,76.00
2022-08-26T03:02:38.527Z,76.10
2022-08-26T03:05:06.156Z,76.20
2022-08-26T03:07:32.916Z,76.20
2022-08-26T03:10:00.935Z,77.10
2022-08-26T03:12:27.705Z,76.40
2022-08-26T03:14:54.370Z,76.50
2022-08-26T03:17:21.161Z,76.60
2022-08-26T03:19:51.754Z,76.60
2022-08-26T03:22:21.055Z,76.70
2022-08-26T03:24:47.721Z,76.70
2022-08-26T03:27:14.466Z,76.80
2022-08-26T03:30:00.393Z,76.90
2022-08-26T03:32:28.068Z,76.80
2022-08-26T03:34:56.393Z,76.80
2022-08-26T03:37:23.171Z,76.90
2022-08-26T03:39:50.049Z,76.90
2022-08-26T03:42:16.716Z,76.90
2022-08-26T03:44:43.761Z,76.90
2022-08-26T03:47:11.996Z,76.90
2022-08-26T03:49:38.940Z,77.00
2022-08-26T03:52:06.136Z,77.00
2022-08-26T03:54:33.245Z,77.10
2022-08-26T03:57:00.060Z,77.10
2022-08-26T03:59:27.251Z,77.10
2022-08-26T04:01:54.597Z,77.10
2022-08-26T04:04:22.599Z,77.20
2022-08-26T04:06:58.310Z,77.30
2022-08-26T04:09:26.280Z,77.40
2022-08-26T04:11:54.025Z,77.50
2022-08-26T04:14:23.819Z,77.40
2022-08-26T04:16:51.805Z,77.50
2022-08-26T04:19:20.376Z,77.60
2022-08-26T04:21:49.118Z,77.60
2022-08-26T04:24:19.656Z,77.50
2022-08-26T04:26:46.391Z,77.50
2022-08-26T04:29:17.994Z,77.60
2022-08-26T04:31:47.967Z,77.70
2022-08-26T04:34:15.415Z,77.80
2022-08-26T04:36:43.342Z,77.90
2022-08-26T04:39:12.280Z,77.90
2022-08-26T04:41:39.640Z,78.10
2022-08-26T04:44:07.722Z,78.20
2022-08-26T04:46:35.267Z,78.20
2022-08-26T04:49:11.300Z,78.50
2022-08-26T04:51:38.598Z,78.50
2022-08-26T04:54:07.109Z,78.60
2022-08-26T04:56:37.188Z,78.70
2022-08-26T04:59:07.901Z,78.80
2022-08-26T05:01:49.378Z,78.80
2022-08-26T05:04:19.082Z,78.90
2022-08-26T05:06:46.946Z,78.80
2022-08-26T05:09:15.326Z,78.70
2022-08-26T05:11:42.371Z,78.70
2022-08-26T05:14:09.695Z,78.70
2022-08-26T05:16:37.106Z,78.70
2022-08-26T05:19:06.708Z,78.80
2022-08-26T05:21:35.760Z,78.80
2022-08-26T05:24:02.651Z,78.90
2022-08-26T05:26:31.595Z,78.90
2022-08-26T05:28:58.486Z,78.90
2022-08-26T05:31:31.934Z,78.80
2022-08-26T05:34:03.665Z,79.00
2022-08-26T05:36:33.438Z,78.90
2022-08-26T05:39:02.711Z,79.00
2022-08-26T05:41:36.204Z,79.00
2022-08-26T05:44:07.462Z,78.90
2022-08-26T05:46:36.533Z,78.60
2022-08-26T05:49:04.812Z,78.70
2022-08-26T05:51:34.987Z,78.70
2022-08-26T05:54:03.695Z,78.80
2022-08-26T05:56:30.585Z,78.90
2022-08-26T05:58:58.443Z,79.10
2022-08-26T06:01:27.547Z,79.20
2022-08-26T06:03:57.492Z,79.30
2022-08-26T06:06:33.781Z,79.30
2022-08-26T06:09:04.040Z,79.30
2022-08-26T06:11:32.529Z,79.20
2022-08-26T06:14:03.736Z,79.00
2022-08-26T06:16:34.674Z,78.80
2022-08-26T06:19:03.395Z,78.70
2022-08-26T06:21:39.302Z,78.50
2022-08-26T06:24:27.562Z,78.50
2022-08-26T06:26:57.106Z,78.40
2022-08-26T06:29:25.772Z,78.30
2022-08-26T06:31:56.638Z,78.20
2022-08-26T06:34:29.732Z,78.30
2022-08-26T06:37:01.188Z,78.40
2022-08-26T06:39:30.868Z,78.50
2022-08-26T06:41:59.092Z,78.50
2022-08-26T06:44:26.753Z,78.30
2022-08-26T06:46:53.545Z,78.20
2022-08-26T06:49:25.728Z,78.00
2022-08-26T06:51:54.731Z,77.90
2022-08-26T06:54:22.087Z,77.60
2022-08-26T06:56:49.493Z,77.40
2022-08-26T06:59:16.215Z,77.00
2022-08-26T07:01:46.307Z,76.80
2022-08-26T07:04:20.167Z,76.30
2022-08-26T07:06:52.309Z,76.00
2022-08-26T07:09:21.445Z,75.60
2022-08-26T07:11:48.429Z,75.20
2022-08-26T07:14:19.341Z,74.90
2022-08-26T07:16:49.781Z,74.50
2022-08-26T07:19:30.482Z,74.00
2022-08-26T07:22:03.259Z,73.50
2022-08-26T07:24:31.058Z,72.90
2022-08-26T07:27:06.157Z,72.50
2022-08-26T07:29:33.864Z,72.00
2022-08-26T07:32:01.119Z,71.50
2022-08-26T07:34:28.014Z,71.20
2022-08-26T07:36:55.486Z,70.80
2022-08-26T07:39:22.664Z,70.20
2022-08-26T07:41:49.655Z,69.70
2022-08-26T07:44:16.664Z,69.20
2022-08-26T07:46:44.280Z,68.70
2022-08-26T07:49:19.600Z,68.20
2022-08-26T07:51:46.517Z,68.00
2022-08-26T07:54:13.255Z,67.70
2022-08-26T07:56:39.951Z,67.60
2022-08-26T07:59:13.610Z,67.30
2022-08-26T08:01:45.178Z,67.00
2022-08-26T08:04:14.232Z,66.70
2022-08-26T08:06:41.839Z,66.60
2022-08-26T08:09:12.662Z,66.60
2022-08-26T08:11:39.511Z,66.50
2022-08-26T08:14:08.320Z,66.30
2022-08-26T08:16:37.250Z,66.10
2022-08-26T08:19:05.830Z,66.00
2022-08-26T08:21:32.502Z,65.90
2022-08-26T08:23:59.856Z,65.90
2022-08-26T08:26:27.232Z,65.80
2022-08-26T08:28:56.767Z,65.80
2022-08-26T08:31:56.036Z,66.40
2022-08-26T08:34:13.578Z,65.60
2022-08-26T08:36:40.334Z,65.20
2022-08-26T08:39:08.312Z,64.60
2022-08-26T08:41:38.880Z,64.40
2022-08-26T08:44:11.397Z,64.30
2022-08-26T08:46:39.550Z,64.10
2022-08-26T08:49:06.324Z,64.00
2022-08-26T08:51:53.265Z,63.90
2022-08-26T08:54:23.123Z,63.50
2022-08-26T08:57:01.025Z,63.20
2022-08-26T08:59:34.102Z,63.00
2022-08-26T09:02:42.653Z,62.70
2022-08-26T09:05:40.055Z,62.80
2022-08-26T09:08:12.147Z,61.90
2022-08-26T09:10:43.301Z,61.50
2022-08-26T09:13:16.909Z,60.60
2022-08-26T09:15:50.551Z,60.00
2022-08-26T09:18:54.691Z,59.60
2022-08-26T09:21:23.955Z,59.00
2022-08-26T09:23:53.718Z,58.90
2022-08-26T09:26:24.731Z,58.60
2022-08-26T09:29:02.708Z,58.60
2022-08-26T09:31:31.110Z,58.50
2022-08-26T09:34:25.811Z,58.10
2022-08-26T09:36:58.484Z,57.60
2022-08-26T09:39:28.113Z,57.70
2022-08-26T09:42:25.444Z,57.60
2022-08-26T09:45:04.887Z,57.40
2022-08-26T09:47:40.522Z,57.80
2022-08-26T09:50:37.898Z,57.80
2022-08-26T09:53:30.302Z,57.70
2022-08-26T09:56:18.022Z,57.80
2022-08-26T09:58:47.237Z,57.80
2022-08-26T10:01:36.682Z,58.10
2022-08-26T10:04:14.558Z,58.10
2022-08-26T10:07:03.016Z,58.40
2022-08-26T10:09:35.375Z,58.30
2022-08-26T10:12:17.322Z,58.20
2022-08-26T10:14:52.708Z,58.10
2022-08-26T10:17:29.163Z,58.20
2022-08-26T10:20:05.684Z,57.90
2022-08-26T10:23:07.650Z,57.70
2022-08-26T10:25:51.272Z,57.80
2022-08-26T10:28:27.010Z,57.90
2022-08-26T10:31:04.237Z,57.90
2022-08-26T10:33:31.203Z,57.90
2022-08-26T10:36:03.192Z,58.10
2022-08-26T10:38:35.574Z,58.30
2022-08-26T10:41:20.907Z,58.20
2022-08-26T10:44:02.972Z,57.80
2022-08-26T10:46:59.899Z,57.60
2022-08-26T10:49:26.640Z,57.50
2022-08-26T10:52:16.896Z,57.60
2022-08-26T10:54:53.191Z,57.90
2022-08-26T10:57:40.581Z,58.20
2022-08-26T11:00:39.458Z,58.80
2022-08-26T11:03:35.607Z,58.90
2022-08-26T11:06:28.778Z,58.90
2022-08-26T11:08:58.352Z,59.10
2022-08-26T11:11:41.957Z,59.50
2022-08-26T11:14:11.639Z,59.70
2022-08-26T11:16:44.489Z,59.70
2022-08-26T11:19:40.100Z,59.20
2022-08-26T11:22:25.468Z,58.80
2022-08-26T11:24:55.256Z,58.40
2022-08-26T11:27:28.343Z,58.10
2022-08-26T11:30:00.675Z,57.90
2022-08-26T11:32:55.582Z,58.20
2022-08-26T11:35:24.969Z,57.70
2022-08-26T11:37:56.590Z,58.00
2022-08-26T11:40:33.571Z,58.10
2022-08-26T11:43:10.048Z,58.80
2022-08-26T11:45:38.645Z,58.40
2022-08-26T11:48:36.640Z,58.70
2022-08-26T11:51:10.148Z,58.90
2022-08-26T11:53:42.561Z,59.10
2022-08-26T11:56:28.802Z,59.40
2022-08-26T11:59:00.723Z,59.70
2022-08-26T12:01:35.603Z,59.90
2022-08-26T12:04:13.686Z,59.90
2022-08-26T12:06:47.636Z,60.60
2022-08-26T12:09:31.192Z,59.70
2022-08-26T12:12:17.917Z,59.70
2022-08-26T12:14:45.445Z,59.90
2022-08-26T12:17:16.551Z,60.10
2022-08-26T12:19:43.765Z,60.30
2022-08-26T12:22:24.254Z,60.50
2022-08-26T12:25:08.939Z,60.80
2022-08-26T12:27:42.217Z,61.10
2022-08-26T12:30:12.341Z,61.10
2022-08-26T12:32:57.684Z,61.10
2022-08-26T12:35:26.755Z,60.80
2022-08-26T12:37:55.037Z,60.50
2022-08-26T12:40:30.900Z,60.30
2022-08-26T12:43:00.694Z,60.00
2022-08-26T12:45:32.221Z,59.90
2022-08-26T12:48:03.156Z,59.60
2022-08-26T12:50:36.743Z,59.20
2022-08-26T12:53:09.695Z,58.40
2022-08-26T12:55:41.902Z,57.80
2022-08-26T12:58:22.608Z,57.10
2022-08-26T13:01:18.555Z,56.80
2022-08-26T13:03:46.636Z,56.30
2022-08-26T13:06:22.224Z,55.70
2022-08-26T13:08:59.298Z,55.10
2022-08-26T13:11:33.079Z,54.70
2022-08-26T13:14:09.035Z,54.20
2022-08-26T13:16:39.260Z,54.00
2022-08-26T13:19:10.516Z,54.00
2022-08-26T13:21:49.441Z,54.30
2022-08-26T13:24:32.732Z,53.30
2022-08-26T13:27:00.212Z,53.40
2022-08-26T13:29:27.334Z,53.60
2022-08-26T13:31:55.754Z,53.60
2022-08-26T13:34:24.256Z,53.70
2022-08-26T13:36:54.067Z,53.80
2022-08-26T13:39:21.466Z,54.10
2022-08-26T13:41:48.400Z,54.10
2022-08-26T13:44:16.512Z,54.10
2022-08-26T13:49:11.179Z,54.00
2022-08-26T13:51:38.711Z,54.00
2022-08-26T13:54:06.146Z,54.00
2022-08-26T13:56:34.078Z,54.20
2022-08-26T13:59:01.417Z,54.10
2022-08-26T14:01:30.146Z,54.00
2022-08-26T14:03:56.991Z,54.10
2022-08-26T14:06:23.853Z,55.00
2022-08-26T14:08:50.783Z,56.30
2022-08-26T14:11:18.353Z,58.80
2022-08-26T14:13:45.079Z,60.20
2022-08-26T14:16:18.904Z,62.50
2022-08-26T14:18:50.493Z,64.50
2022-08-26T14:21:18.145Z,65.90
2022-08-26T14:23:44.912Z,67.50
2022-08-26T14:26:14.368Z,68.90
2022-08-26T14:28:56.814Z,69.90
2022-08-26T14:31:24.161Z,71.20
2022-08-26T14:33:51.055Z,72.40
2022-08-26T14:36:33.214Z,73.40
2022-08-26T14:39:04.114Z,74.90
2022-08-26T14:41:32.057Z,74.00
2022-08-26T14:44:08.009Z,73.90
2022-08-26T14:46:41.699Z,73.30
2022-08-26T14:49:10.659Z,72.70
2022-08-26T14:51:38.272Z,72.40
2022-08-26T14:54:13.993Z,72.20
2022-08-26T14:56:56.605Z,72.30
2022-08-26T14:59:33.090Z,72.60
2022-08-26T15:02:00.563Z,72.80
2022-08-26T15:04:28.301Z,73.00
2022-08-26T15:06:56.845Z,73.40
2022-08-26T15:09:24.570Z,73.10
2022-08-26T15:11:53.031Z,72.90
2022-08-26T15:14:21.435Z,73.30
2022-08-26T15:16:49.981Z,73.80
2022-08-26T15:19:17.545Z,73.90
2022-08-26T15:21:45.568Z,73.60
2022-08-26T15:24:12.881Z,73.40
2022-08-26T15:26:39.800Z,72.80
2022-08-26T15:29:07.244Z,72.00
2022-08-26T15:31:34.363Z,71.70
2022-08-26T15:34:04.603Z,71.70
2022-08-26T15:36:32.977Z,71.80
2022-08-26T15:39:00.869Z,71.80
2022-08-26T15:41:28.986Z,71.70
2022-08-26T15:43:55.794Z,71.40
2022-08-26T15:46:22.951Z,71.00
2022-08-26T15:48:50.114Z,70.70
2022-08-26T15:51:28.598Z,70.60
2022-08-26T15:53:58.912Z,70.40
2022-08-26T15:56:28.601Z,70.30
2022-08-26T15:58:56.691Z,70.30
2022-08-26T16:01:27.349Z,70.40
2022-08-26T16:03:55.064Z,70.20
2022-08-26T16:06:25.120Z,70.00
2022-08-26T16:08:51.910Z,70.00
2022-08-26T16:11:19.797Z,70.00
2022-08-26T16:13:47.738Z,70.00
2022-08-26T16:16:15.293Z,70.00
2022-08-26T16:18:42.677Z,70.10
2022-08-26T16:21:14.297Z,70.20
2022-08-26T16:23:45.056Z,70.10
2022-08-26T16:26:16.332Z,70.30
2022-08-26T16:28:43.572Z,70.00
2022-08-26T16:31:11.272Z,70.10
2022-08-26T16:33:38.033Z,70.20
2022-08-26T16:36:06.065Z,70.20
2022-08-26T16:38:33.571Z,70.10
2022-08-26T16:41:01.095Z,70.50
2022-08-26T16:43:28.459Z,70.70
2022-08-26T16:45:55.472Z,70.60
2022-08-26T16:48:23.525Z,70.60
2022-08-26T16:50:51.277Z,70.80
2022-08-26T16:53:18.738Z,71.10
2022-08-26T16:55:47.461Z,72.20
2022-08-26T16:58:14.663Z,71.60
2022-08-26T17:00:41.454Z,71.90
2022-08-26T17:03:08.273Z,71.80
2022-08-26T17:05:36.226Z,72.00
2022-08-26T17:08:04.087Z,72.10
2022-08-26T17:10:31.818Z,71.90
2022-08-26T17:12:58.956Z,72.30
2022-08-26T17:15:25.995Z,72.30
2022-08-26T17:17:53.682Z,72.50
2022-08-26T17:20:22.289Z,72.70
2022-08-26T17:22:51.307Z,72.80
2022-08-26T17:25:32.157Z,72.90
2022-08-26T17:27:59.618Z,73.10
2022-08-26T17:30:27.056Z,73.20
2022-08-26T17:32:55.331Z,73.50
2022-08-26T17:35:22.619Z,73.60
2022-08-26T17:37:49.400Z,73.70
2022-08-26T17:40:21.482Z,73.90
2022-08-26T17:42:48.949Z,74.00
2022-08-26T17:45:16.572Z,74.00
2022-08-26T17:47:43.986Z,74.20
2022-08-26T17:50:13.617Z,74.30
2022-08-26T17:52:40.996Z,74.50
2022-08-26T17:55:09.907Z,74.60
2022-08-26T17:57:40.913Z,74.60
2022-08-26T18:00:13.972Z,74.80
2022-08-26T18:02:40.938Z,74.60
2022-08-26T18:05:09.378Z,74.70
2022-08-26T18:07:43.654Z,74.80
2022-08-26T18:10:13.858Z,74.80
2022-08-26T18:12:41.472Z,74.90
2022-08-26T18:15:09.990Z,75.00
2022-08-26T18:17:39.160Z,75.10
2022-08-26T18:20:09.165Z,75.20
2022-08-26T18:22:36.043Z,75.50
2022-08-26T18:25:04.815Z,75.60
2022-08-26T18:27:31.579Z,75.70
2022-08-26T18:29:58.444Z,75.80
2022-08-26T18:32:25.165Z,75.90
2022-08-26T18:34:51.868Z,76.00
2022-08-26T18:37:18.632Z,76.20
2022-08-26T18:39:45.364Z,76.30
2022-08-26T18:42:12.802Z,76.30
2022-08-26T18:44:39.512Z,76.40
2022-08-26T18:47:06.663Z,76.40
2022-08-26T18:49:33.461Z,76.50
2022-08-26T18:52:00.341Z,76.60
2022-08-26T18:54:27.180Z,76.60
2022-08-26T18:56:53.895Z,76.60
2022-08-26T18:59:20.634Z,76.60
2022-08-26T19:01:56.620Z,76.50
2022-08-26T19:04:23.527Z,76.70
2022-08-26T19:06:51.188Z,76.70
2022-08-26T19:09:20.121Z,76.90
2022-08-26T19:11:48.834Z,77.00
2022-08-26T19:14:16.793Z,77.10
2022-08-26T19:16:46.419Z,77.20
2022-08-26T19:19:15.456Z,77.20
2022-08-26T19:21:42.560Z,77.40
2022-08-26T19:24:17.134Z,77.40
2022-08-26T19:26:47.206Z,77.50
2022-08-26T19:29:15.407Z,77.50
2022-08-26T19:31:43.160Z,77.60
2022-08-26T19:34:11.518Z,77.70
2022-08-26T19:36:39.475Z,77.70
2022-08-26T19:39:12.053Z,77.70
2022-08-26T19:41:39.973Z,77.90
2022-08-26T19:44:11.556Z,78.00
2022-08-26T19:49:10.648Z,78.40
2022-08-26T19:51:37.636Z,78.60
2022-08-26T19:54:04.672Z,78.80
2022-08-26T19:56:31.652Z,78.60
2022-08-26T19:58:58.661Z,79.00
2022-08-26T20:01:26.164Z,79.00
2022-08-26T20:03:53.243Z,79.10
2022-08-26T20:06:20.259Z,79.20
2022-08-26T20:08:47.745Z,79.30
2022-08-26T20:11:18.691Z,79.40
2022-08-26T20:13:46.871Z,79.60
2022-08-26T20:16:14.504Z,79.60
2022-08-26T20:19:01.647Z,79.60
2022-08-26T20:21:31.523Z,79.80
2022-08-26T20:24:04.117Z,79.70
2022-08-26T20:26:33.271Z,79.90
2022-08-26T20:29:00.131Z,80.00
2022-08-26T20:31:27.978Z,79.90
2022-08-26T20:33:54.831Z,80.10
2022-08-26T20:36:23.704Z,80.10
2022-08-26T20:38:50.778Z,80.10
2022-08-26T20:41:17.815Z,80.10
2022-08-26T20:43:46.079Z,80.00
2022-08-26T20:46:18.142Z,80.10
2022-08-26T20:48:46.932Z,80.30
2022-08-26T20:51:13.678Z,80.40
2022-08-26T20:53:41.242Z,80.50
2022-08-26T20:56:09.435Z,80.50
2022-08-26T20:58:37.298Z,80.60
2022-08-26T21:01:07.763Z,80.70
2022-08-26T21:03:36.345Z,81.00
2022-08-26T21:06:03.915Z,81.10
2022-08-26T21:08:33.318Z,80.80
2022-08-26T21:11:00.605Z,81.20
2022-08-26T21:13:29.040Z,81.10
2022-08-26T21:16:02.875Z,81.20
2022-08-26T21:18:29.627Z,81.30
2022-08-26T21:20:56.481Z,81.30
2022-08-26T21:23:26.346Z,81.50
2022-08-26T21:25:55.452Z,81.60
2022-08-26T21:28:22.246Z,81.70
2022-08-26T21:30:49.010Z,81.80
2022-08-26T21:33:15.721Z,81.90
2022-08-26T21:35:42.406Z,81.90
2022-08-26T21:38:09.239Z,81.90
2022-08-26T21:40:36.114Z,82.10
2022-08-26T21:43:02.759Z,82.20
2022-08-26T21:45:29.570Z,82.30
2022-08-26T21:47:56.404Z,82.50
2022-08-26T21:50:23.100Z,83.30
2022-08-26T21:52:49.834Z,82.60
2022-08-26T21:55:16.670Z,82.70
2022-08-26T21:57:43.507Z,82.70
2022-08-26T22:00:14.358Z,82.80
2022-08-26T22:02:41.252Z,82.90
2022-08-26T22:05:08.344Z,82.90
2022-08-26T22:07:35.138Z,83.10
2022-08-26T22:10:02.170Z,83.30
2022-08-26T22:12:28.931Z,83.40
2022-08-26T22:14:55.696Z,83.40
2022-08-26T22:17:22.750Z,83.30
2022-08-26T22:19:50.027Z,83.40
2022-08-26T22:22:17.437Z,83.50
2022-08-26T22:24:44.245Z,83.60
2022-08-26T22:27:11.921Z,83.70
2022-08-26T22:29:38.911Z,83.80
2022-08-26T22:32:06.157Z,83.90
2022-08-26T22:34:33.155Z,84.00
2022-08-26T22:36:59.866Z,84.10
2022-08-26T22:39:26.837Z,84.40
2022-08-26T22:41:55.201Z,84.40
2022-08-26T22:44:22.391Z,84.80
2022-08-26T22:46:50.629Z,84.80
2022-08-26T22:49:17.438Z,85.00
2022-08-26T22:51:45.494Z,85.10
2022-08-26T22:54:13.384Z,85.30
2022-08-26T22:56:40.245Z,85.40
2022-08-26T22:59:07.984Z,85.50
2022-08-26T23:01:37.597Z,85.50
2022-08-26T23:04:06.291Z,85.50
2022-08-26T23:06:36.240Z,85.80
2022-08-26T23:09:03.148Z,85.80
2022-08-26T23:11:29.854Z,85.80
2022-08-26T23:13:56.605Z,85.90
2022-08-26T23:16:23.421Z,86.00
2022-08-26T23:18:50.358Z,86.20
2022-08-26T23:21:17.277Z,86.20
2022-08-26T23:23:45.035Z,86.30
2022-08-26T23:26:16.690Z,86.40
2022-08-26T23:28:44.317Z,86.60
2022-08-26T23:31:11.023Z,86.70
2022-08-26T23:33:56.344Z,86.70
2022-08-26T23:36:25.074Z,86.90
2022-08-26T23:38:52.889Z,86.90
2022-08-26T23:41:21.964Z,87.00
2022-08-26T23:43:49.237Z,87.10
2022-08-26T23:46:16.124Z,87.20
2022-08-26T23:48:42.938Z,87.20
2022-08-26T23:51:29.520Z,87.30
2022-08-26T23:53:57.825Z,87.30
2022-08-26T23:56:24.877Z,87.30
2022-08-26T23:58:53.764Z,87.40
